Texas Highway — JMVY — position and weather

sailwx.info

Track history (hours):
 
Tides and Currents Weather Stations Pressure Air Temp Water Temp Dewpoint Dewpoint Depression Visibility Wind Speed Wind Dir Waves Ship Positions

Texas Highway

Last reported at 2018-Aug-08 17:24 UTC. Time now 2018-Aug-14 15:18 UTC.
Position N 09°11' W 079°52'.

Length 199.9 m; beam 32.2 m.

Type: Cargo ship. MMSI: 432440000.

Date/timePositionNaut miles runAvg speedWind from/ knotsBaromVisibWave heightAir tempDewpointWater temp
2018-Aug-08 17:24N 09°11' W 079°52'410.2
2018-Aug-08 17:00N 09°13' W 079°55'3 6.8
2018-Aug-08 16:30N 09°16' W 079°55'0 0.4
2018-Aug-08 16:00N 09°16' W 079°55'0 0.4
2018-Aug-08 15:30N 09°17' W 079°55'1 1.1
2018-Aug-08 14:57N 09°17' W 079°55'2 3.8
2018-Aug-08 14:30N 09°19' W 079°55'3 5.3
2018-Aug-08 14:01N 09°21' W 079°55'3 5.5
2018-Aug-08 13:31N 09°24' W 079°55'3 4.8
2018-Aug-08 12:58N 09°27' W 079°55'2 5.0
2018-Aug-08 12:31N 09°26' W 079°57'1 2.7
2018-Aug-08 11:59N 09°25' W 079°56'0 0.1
2018-Aug-08 11:29N 09°25' W 079°56'0 0.0
2018-Aug-08 10:59N 09°25' W 079°56'0 0.0
2018-Aug-08 10:29N 09°25' W 079°56'0 0.0
2018-Aug-08 09:56N 09°25' W 079°56'0 0.1
2018-Aug-08 09:29N 09°25' W 079°56'0 0.0
2018-Aug-08 08:59N 09°25' W 079°56'0 0.0
2018-Aug-08 08:29N 09°25' W 079°56'0 0.0
2018-Aug-08 07:59N 09°25' W 079°56'0 0.0
2018-Aug-08 07:29N 09°25' W 079°56'0 0.0
2018-Aug-08 06:59N 09°25' W 079°56'0 0.0
2018-Aug-08 06:29N 09°25' W 079°56'0 0.1
2018-Aug-08 05:56N 09°25' W 079°56'0 0.0
2018-Aug-08 05:29N 09°25' W 079°56'0 0.1
2018-Aug-08 05:01N 09°25' W 079°56'1 2.9
2018-Aug-08 04:30N 09°26' W 079°55'4 7.1
2018-Aug-08 04:00N 09°30' W 079°54'612.8
2018-Aug-08 03:30N 09°36' W 079°52'  
2018-Aug-03 04:06N 40°19' W 073°41'9 4.6
2018-Aug-03 02:07N 40°26' W 073°48'1 5.7
2018-Aug-03 02:00N 40°26' W 073°49'713.4
2018-Aug-03 01:30N 40°30' W 073°57'815.1
2018-Aug-03 01:00N 40°36' W 074°03'4 8.6
2018-Aug-03 00:30N 40°39' W 074°07'2 4.1
2018-Aug-03 00:00N 40°41' W 074°08'1 1.4
2018-Aug-02 23:25N 40°41' W 074°08'0 0.0
2018-Aug-02 22:58N 40°41' W 074°08'0 0.0
2018-Aug-02 22:28N 40°41' W 074°08'0 0.0
2018-Aug-02 21:58N 40°41' W 074°08'0 0.0
2018-Aug-02 21:28N 40°41' W 074°08'0 0.0
2018-Aug-02 20:58N 40°41' W 074°08'0 0.0
2018-Aug-02 20:25N 40°41' W 074°08'0 0.0
2018-Aug-02 19:58N 40°41' W 074°08'0 0.0
2018-Aug-02 19:25N 40°41' W 074°08'0 0.0
2018-Aug-02 18:58N 40°41' W 074°08'0 0.0
2018-Aug-02 18:28N 40°41' W 074°08'0 0.0
2018-Aug-02 17:55N 40°41' W 074°08'0 0.0
2018-Aug-02 17:28N 40°41' W 074°08'0 0.0
2018-Aug-02 16:58N 40°41' W 074°08'0 0.0
2018-Aug-02 16:25N 40°41' W 074°08'0 0.0
2018-Aug-02 15:58N 40°41' W 074°08'0 0.0
2018-Aug-02 15:28N 40°41' W 074°08'0 0.0
2018-Aug-02 14:58N 40°41' W 074°08'0 0.0
2018-Aug-02 14:25N 40°41' W 074°08'0 0.0
2018-Aug-02 13:58N 40°41' W 074°08'0 0.0
2018-Aug-02 13:25N 40°41' W 074°08'0 0.0
2018-Aug-02 12:58N 40°41' W 074°08'0 0.0
2018-Aug-02 12:28N 40°41' W 074°08'0 0.0
2018-Aug-02 11:58N 40°41' W 074°08'0 0.0
2018-Aug-02 11:28N 40°41' W 074°08'0 0.0
2018-Aug-02 10:58N 40°41' W 074°08'0 0.0
2018-Aug-02 10:28N 40°41' W 074°08'0 0.0
2018-Aug-02 09:58N 40°41' W 074°08'0 0.0
2018-Aug-02 09:28N 40°41' W 074°08'0 0.0
2018-Aug-02 08:58N 40°41' W 074°08'0 0.0
2018-Aug-02 08:28N 40°41' W 074°08'0 0.0
2018-Aug-02 07:58N 40°41' W 074°08'0 0.0
2018-Aug-02 07:28N 40°41' W 074°08'0 0.0
2018-Aug-02 06:58N 40°41' W 074°08'0 0.0
2018-Aug-02 06:28N 40°41' W 074°08'1 1.6
2018-Aug-02 06:00N 40°41' W 074°08'2 4.4
2018-Aug-02 05:31N 40°39' W 074°08'2 4.3
2018-Aug-02 05:00N 40°39' W 074°06'2 4.3
2018-Aug-02 04:30N 40°38' W 074°03'510.4
2018-Aug-02 04:00N 40°33' W 074°01'611.4
2018-Aug-02 03:30N 40°30' W 073°55'510.7
2018-Aug-02 03:00N 40°27' W 073°49'4 7.8
2018-Aug-02 02:27N 40°23' W 073°47'4 8.1
2018-Aug-02 01:58N 40°19' W 073°46'18 7.9
2018-Aug-01 23:45N 40°02' W 073°43'6 8.0
2018-Aug-01 22:59N 39°56' W 073°43'4 8.0
2018-Aug-01 22:30N 39°52' W 073°42'8 8.1
2018-Aug-01 21:30N 39°44' W 073°41'4 7.6
2018-Aug-01 21:00N 39°40' W 073°41'2 4.8
2018-Aug-01 20:30N 39°38' W 073°41'4 8.2
2018-Aug-01 20:00N 39°34' W 073°41'35 8.1
2018-Aug-01 15:46N 38°59' W 073°41'7 7.5
2018-Aug-01 14:48N 38°52' W 073°42'7 8.0
2018-Aug-01 13:55N 38°45' W 073°43'3 8.2
2018-Aug-01 13:29N 38°41' W 073°43'4 8.1
2018-Aug-01 12:59N 38°37' W 073°44'5 8.0
2018-Aug-01 12:25N 38°33' W 073°45'510.3
2018-Aug-01 11:58N 38°28' W 073°46'916.6
2018-Aug-01 11:25N 38°19' W 073°48'816.6
2018-Aug-01 10:56N 38°11' W 073°49'816.4
2018-Aug-01 10:28N 38°04' W 073°50'1316.3
2018-Aug-01 09:42N 37°51' W 073°51'816.3
2018-Aug-01 09:11N 37°43' W 073°53'  
Track history (hours):
 
Tides and Currents Weather Stations Pressure Air Temp Water Temp Dewpoint Dewpoint Depression Visibility Wind Speed Wind Dir Waves Ship Positions

Texas Highway

Last reported at 2018-Aug-08 17:24 UTC. Time now 2018-Aug-14 15:18 UTC.
Position N 09°11' W 079°52'.

Length 199.9 m; beam 32.2 m.

Type: Cargo ship. MMSI: 432440000.

Date/timePositionNaut miles runAvg speedWind from/ knotsBaromVisibWave heightAir tempDewpointWater temp
2018-Aug-08 17:24N 09°11' W 079°52'410.2
2018-Aug-08 17:00N 09°13' W 079°55'3 6.8
2018-Aug-08 16:30N 09°16' W 079°55'0 0.4
2018-Aug-08 16:00N 09°16' W 079°55'0 0.4
2018-Aug-08 15:30N 09°17' W 079°55'1 1.1
2018-Aug-08 14:57N 09°17' W 079°55'2 3.8
2018-Aug-08 14:30N 09°19' W 079°55'3 5.3
2018-Aug-08 14:01N 09°21' W 079°55'3 5.5
2018-Aug-08 13:31N 09°24' W 079°55'3 4.8
2018-Aug-08 12:58N 09°27' W 079°55'2 5.0
2018-Aug-08 12:31N 09°26' W 079°57'1 2.7
2018-Aug-08 11:59N 09°25' W 079°56'0 0.1
2018-Aug-08 11:29N 09°25' W 079°56'0 0.0
2018-Aug-08 10:59N 09°25' W 079°56'0 0.0
2018-Aug-08 10:29N 09°25' W 079°56'0 0.0
2018-Aug-08 09:56N 09°25' W 079°56'0 0.1
2018-Aug-08 09:29N 09°25' W 079°56'0 0.0
2018-Aug-08 08:59N 09°25' W 079°56'0 0.0
2018-Aug-08 08:29N 09°25' W 079°56'0 0.0
2018-Aug-08 07:59N 09°25' W 079°56'0 0.0
2018-Aug-08 07:29N 09°25' W 079°56'0 0.0
2018-Aug-08 06:59N 09°25' W 079°56'0 0.0
2018-Aug-08 06:29N 09°25' W 079°56'0 0.1
2018-Aug-08 05:56N 09°25' W 079°56'0 0.0
2018-Aug-08 05:29N 09°25' W 079°56'0 0.1
2018-Aug-08 05:01N 09°25' W 079°56'1 2.9
2018-Aug-08 04:30N 09°26' W 079°55'4 7.1
2018-Aug-08 04:00N 09°30' W 079°54'612.8
2018-Aug-08 03:30N 09°36' W 079°52'  
2018-Aug-03 04:06N 40°19' W 073°41'9 4.6
2018-Aug-03 02:07N 40°26' W 073°48'1 5.7
2018-Aug-03 02:00N 40°26' W 073°49'713.4
2018-Aug-03 01:30N 40°30' W 073°57'815.1
2018-Aug-03 01:00N 40°36' W 074°03'4 8.6
2018-Aug-03 00:30N 40°39' W 074°07'2 4.1
2018-Aug-03 00:00N 40°41' W 074°08'1 1.4
2018-Aug-02 23:25N 40°41' W 074°08'0 0.0
2018-Aug-02 22:58N 40°41' W 074°08'0 0.0
2018-Aug-02 22:28N 40°41' W 074°08'0 0.0
2018-Aug-02 21:58N 40°41' W 074°08'0 0.0
2018-Aug-02 21:28N 40°41' W 074°08'0 0.0
2018-Aug-02 20:58N 40°41' W 074°08'0 0.0
2018-Aug-02 20:25N 40°41' W 074°08'0 0.0
2018-Aug-02 19:58N 40°41' W 074°08'0 0.0
2018-Aug-02 19:25N 40°41' W 074°08'0 0.0
2018-Aug-02 18:58N 40°41' W 074°08'0 0.0
2018-Aug-02 18:28N 40°41' W 074°08'0 0.0
2018-Aug-02 17:55N 40°41' W 074°08'0 0.0
2018-Aug-02 17:28N 40°41' W 074°08'0 0.0
2018-Aug-02 16:58N 40°41' W 074°08'0 0.0
2018-Aug-02 16:25N 40°41' W 074°08'0 0.0
2018-Aug-02 15:58N 40°41' W 074°08'0 0.0
2018-Aug-02 15:28N 40°41' W 074°08'0 0.0
2018-Aug-02 14:58N 40°41' W 074°08'0 0.0
2018-Aug-02 14:25N 40°41' W 074°08'0 0.0
2018-Aug-02 13:58N 40°41' W 074°08'0 0.0
2018-Aug-02 13:25N 40°41' W 074°08'0 0.0
2018-Aug-02 12:58N 40°41' W 074°08'0 0.0
2018-Aug-02 12:28N 40°41' W 074°08'0 0.0
2018-Aug-02 11:58N 40°41' W 074°08'0 0.0
2018-Aug-02 11:28N 40°41' W 074°08'0 0.0
2018-Aug-02 10:58N 40°41' W 074°08'0 0.0
2018-Aug-02 10:28N 40°41' W 074°08'0 0.0
2018-Aug-02 09:58N 40°41' W 074°08'0 0.0
2018-Aug-02 09:28N 40°41' W 074°08'0 0.0
2018-Aug-02 08:58N 40°41' W 074°08'0 0.0
2018-Aug-02 08:28N 40°41' W 074°08'0 0.0
2018-Aug-02 07:58N 40°41' W 074°08'0 0.0
2018-Aug-02 07:28N 40°41' W 074°08'0 0.0
2018-Aug-02 06:58N 40°41' W 074°08'0 0.0
2018-Aug-02 06:28N 40°41' W 074°08'1 1.6
2018-Aug-02 06:00N 40°41' W 074°08'2 4.4
2018-Aug-02 05:31N 40°39' W 074°08'2 4.3
2018-Aug-02 05:00N 40°39' W 074°06'2 4.3
2018-Aug-02 04:30N 40°38' W 074°03'510.4
2018-Aug-02 04:00N 40°33' W 074°01'611.4
2018-Aug-02 03:30N 40°30' W 073°55'510.7
2018-Aug-02 03:00N 40°27' W 073°49'4 7.8
2018-Aug-02 02:27N 40°23' W 073°47'4 8.1
2018-Aug-02 01:58N 40°19' W 073°46'18 7.9
2018-Aug-01 23:45N 40°02' W 073°43'6 8.0
2018-Aug-01 22:59N 39°56' W 073°43'4 8.0
2018-Aug-01 22:30N 39°52' W 073°42'8 8.1
2018-Aug-01 21:30N 39°44' W 073°41'4 7.6
2018-Aug-01 21:00N 39°40' W 073°41'2 4.8
2018-Aug-01 20:30N 39°38' W 073°41'4 8.2
2018-Aug-01 20:00N 39°34' W 073°41'35 8.1
2018-Aug-01 15:46N 38°59' W 073°41'7 7.5
2018-Aug-01 14:48N 38°52' W 073°42'7 8.0
2018-Aug-01 13:55N 38°45' W 073°43'3 8.2
2018-Aug-01 13:29N 38°41' W 073°43'4 8.1
2018-Aug-01 12:59N 38°37' W 073°44'5 8.0
2018-Aug-01 12:25N 38°33' W 073°45'510.3
2018-Aug-01 11:58N 38°28' W 073°46'916.6
2018-Aug-01 11:25N 38°19' W 073°48'816.6
2018-Aug-01 10:56N 38°11' W 073°49'816.4
2018-Aug-01 10:28N 38°04' W 073°50'1316.3
2018-Aug-01 09:42N 37°51' W 073°51'816.3
2018-Aug-01 09:11N 37°43' W 073°53'  

Dump ship's entire track history